Time;durP1;ratioP1;P1;durP2;ratioP2;P2;SDS_P1;SDS_P2;PMS_P1;PMS_P2;Temp;Humidity;BMP_temperature;BMP_pressure;BME280_temperature;BME280_humidity;BME280_pressure;Samples;Min_cycle;Max_cycle;Signal;HPM_P1;HPM_P2
2022/06/24 00:01:34;;;;;;;1999.90;999.90;;;19.90;99.90;;;;;;5033263;28;20498;-71
2022/06/24 00:04:01;;;;;;;1999.90;999.90;;;20.00;99.90;;;;;;5033163;28;20505;-72
2022/06/24 00:06:41;;;;;;;1999.90;999.90;;;20.00;99.90;;;;;;5033342;28;20516;-71
2022/06/24 00:09:12;;;;;;;1999.90;999.90;;;20.10;99.90;;;;;;5033195;28;20443;-71
2022/06/24 00:11:39;;;;;;;1999.90;999.90;;;20.00;99.70;;;;;;5032767;28;20952;-71
2022/06/24 00:14:10;;;;;;;1999.90;999.90;;;20.00;99.70;;;;;;5033133;28;20474;-71
2022/06/24 00:16:54;;;;;;;1999.90;999.90;;;20.00;99.60;;;;;;5032684;28;21052;-71
2022/06/24 00:19:22;;;;;;;1999.90;999.90;;;20.00;99.40;;;;;;5033069;28;21016;-71
2022/06/24 00:22:01;;;;;;;1999.90;999.90;;;20.00;99.30;;;;;;5033081;28;20443;-71
2022/06/24 00:24:29;;;;;;;1999.90;999.90;;;20.10;99.30;;;;;;5033098;28;20971;-71
2022/06/24 00:26:56;;;;;;;1999.90;999.90;;;20.10;99.20;;;;;;5032814;28;20521;-71
2022/06/24 00:29:25;;;;;;;1999.90;999.90;;;20.10;99.00;;;;;;5033080;28;20493;-71
2022/06/24 00:32:05;;;;;;;1999.90;999.90;;;20.10;99.00;;;;;;5032729;28;20516;-71
2022/06/24 00:34:33;;;;;;;1999.90;999.90;;;20.10;99.00;;;;;;5033309;28;20458;-71
2022/06/24 00:37:27;;;;;;;1999.90;999.90;;;20.00;99.30;;;;;;5033072;28;21045;-71
2022/06/24 00:39:56;;;;;;;1999.90;999.90;;;19.90;99.70;;;;;;5033489;28;20478;-71
2022/06/24 00:42:24;;;;;;;1999.90;999.90;;;19.70;99.90;;;;;;5033467;28;20447;-71
2022/06/24 00:44:57;;;;;;;1999.90;999.90;;;19.60;99.90;;;;;;5033644;28;20451;-72
2022/06/24 00:47:28;;;;;;;1999.90;999.90;;;19.50;99.90;;;;;;5033407;28;20439;-71
2022/06/24 00:49:58;;;;;;;1999.90;999.90;;;19.40;99.90;;;;;;5033558;28;20431;-71
2022/06/24 00:52:24;;;;;;;1999.90;999.90;;;19.50;99.90;;;;;;5032709;28;20439;-71
2022/06/24 00:54:53;;;;;;;1999.90;999.90;;;19.60;99.90;;;;;;5033002;28;20505;-71
2022/06/24 00:57:20;;;;;;;1999.90;999.90;;;19.50;99.90;;;;;;5033368;28;20467;-71
2022/06/24 00:59:48;;;;;;;1999.90;999.90;;;19.50;99.90;;;;;;5032417;28;20926;-71
2022/06/24 01:02:16;;;;;;;1999.90;999.90;;;19.50;99.90;;;;;;5032980;28;20443;-72
2022/06/24 01:04:44;;;;;;;1999.90;999.90;;;19.40;99.90;;;;;;5033184;28;20457;-71
2022/06/24 01:07:10;;;;;;;1999.90;999.90;;;19.40;99.90;;;;;;5032949;28;20475;-71
2022/06/24 01:09:37;;;;;;;1999.90;999.90;;;19.30;99.90;;;;;;5033010;28;20470;-72
2022/06/24 01:12:06;;;;;;;1999.90;999.90;;;19.30;99.90;;;;;;5032493;28;20501;-71
2022/06/24 01:14:32;;;;;;;1999.90;999.90;;;19.40;99.90;;;;;;5032414;28;20948;-71
2022/06/24 01:16:59;;;;;;;1999.90;999.90;;;19.50;99.90;;;;;;5090821;22;20492;-68
2022/06/24 01:19:27;;;;;;;1999.90;999.90;;;19.60;99.90;;;;;;5092086;28;20537;-70
2022/06/24 01:21:55;;;;;;;1999.90;999.90;;;19.60;99.90;;;;;;5091629;28;20937;-69
2022/06/24 01:24:25;;;;;;;1999.90;999.90;;;19.70;99.90;;;;;;5091680;28;20944;-69
2022/06/24 01:26:54;;;;;;;1999.90;999.90;;;19.80;99.90;;;;;;5091888;28;20464;-68
2022/06/24 01:29:22;;;;;;;1999.90;999.90;;;19.80;99.90;;;;;;5091919;28;20509;-69
2022/06/24 01:31:50;;;;;;;1999.90;999.90;;;19.80;99.80;;;;;;5091796;28;20538;-69
2022/06/24 01:34:17;;;;;;;1999.90;999.90;;;19.80;99.60;;;;;;5092069;28;20814;-67
2022/06/24 01:36:44;;;;;;;1999.90;999.90;;;19.80;99.70;;;;;;5091919;28;20460;-68
2022/06/24 01:39:13;;;;;;;1999.90;999.90;;;19.90;99.50;;;;;;5091834;28;20789;-68
2022/06/24 01:41:40;;;;;;;1999.90;999.90;;;19.90;99.50;;;;;;5091387;28;21066;-69
2022/06/24 01:44:07;;;;;;;1999.90;999.90;;;19.80;99.60;;;;;;5092168;28;20448;-68
2022/06/24 01:46:34;;;;;;;1999.90;999.90;;;19.80;99.80;;;;;;5091940;28;20509;-69
2022/06/24 01:49:01;;;;;;;1999.90;999.90;;;19.60;99.90;;;;;;5091934;28;20444;-69
2022/06/24 01:51:28;;;;;;;1999.90;999.90;;;19.40;99.90;;;;;;5093376;28;20486;-67
2022/06/24 01:53:55;;;;;;;1999.90;999.90;;;19.40;99.90;;;;;;5095769;28;20470;-67
2022/06/24 01:56:23;;;;;;;1999.90;999.90;;;19.40;99.90;;;;;;5095958;28;20870;-68
2022/06/24 01:58:50;;;;;;;1999.90;999.90;;;19.30;99.90;;;;;;5095927;28;20498;-68
2022/06/24 02:01:16;;;;;;;1999.90;999.90;;;19.20;99.90;;;;;;5095353;28;20480;-67
2022/06/24 02:03:43;;;;;;;1999.90;999.90;;;19.30;99.90;;;;;;5095309;28;20502;-70
2022/06/24 02:06:13;;;;;;;1999.90;999.90;;;19.30;99.90;;;;;;5095671;28;20476;-68
2022/06/24 02:08:40;;;;;;;1999.90;999.90;;;19.30;99.90;;;;;;5095558;28;20444;-70
2022/06/24 02:13:55;;;;;;;1999.90;999.90;;;19.10;99.90;;;;;;5095635;28;20427;-68
2022/06/24 02:16:22;;;;;;;1999.90;999.90;;;19.10;99.90;;;;;;5094690;28;20503;-68
2022/06/24 02:18:49;;;;;;;1999.90;999.90;;;19.10;99.90;;;;;;5095456;28;20452;-67
2022/06/24 02:21:16;;;;;;;1999.90;999.90;;;19.10;99.90;;;;;;5095495;28;20529;-68
2022/06/24 02:23:43;;;;;;;1999.90;999.90;;;19.20;99.90;;;;;;5094999;28;20448;-68
2022/06/24 02:26:10;;;;;;;1999.90;999.90;;;19.20;99.90;;;;;;5095358;28;20464;-68
2022/06/24 02:28:37;;;;;;;1999.90;999.90;;;19.10;99.90;;;;;;5095596;28;20444;-69
2022/06/24 02:31:06;;;;;;;1999.90;999.90;;;19.00;99.90;;;;;;5095249;28;20497;-68
2022/06/24 02:33:33;;;;;;;1999.90;999.90;;;18.90;99.90;;;;;;5095244;28;20444;-69
2022/06/24 02:36:00;;;;;;;1999.90;999.90;;;18.90;99.90;;;;;;5095082;28;20517;-68
2022/06/24 02:38:27;;;;;;;1999.90;999.90;;;18.80;99.90;;;;;;5094991;28;20497;-67
2022/06/24 02:40:54;;;;;;;1999.90;999.90;;;18.70;99.90;;;;;;5094640;28;20567;-67
2022/06/24 02:43:23;;;;;;;1999.90;999.90;;;18.70;99.90;;;;;;5094983;28;20449;-69
2022/06/24 02:45:52;;;;;;;1999.90;999.90;;;18.60;99.90;;;;;;5094839;28;20468;-67
2022/06/24 02:48:22;;;;;;;1999.90;999.90;;;18.70;99.90;;;;;;5095014;28;20452;-68
2022/06/24 02:50:50;;;;;;;1999.90;999.90;;;18.70;99.90;;;;;;5094759;28;20449;-69
2022/06/24 02:53:18;;;;;;;1999.90;999.90;;;18.70;99.90;;;;;;5094284;28;20448;-69
2022/06/24 02:55:47;;;;;;;1999.90;999.90;;;18.60;99.90;;;;;;5094709;28;20494;-67
2022/06/24 02:58:15;;;;;;;1999.90;999.90;;;18.60;99.90;;;;;;5094920;28;20521;-69
2022/06/24 03:00:42;;;;;;;1999.90;999.90;;;18.50;99.90;;;;;;5094368;28;20525;-67
2022/06/24 03:03:09;;;;;;;1999.90;999.90;;;18.60;99.90;;;;;;5093848;28;20447;-68
2022/06/24 03:05:37;;;;;;;1999.90;999.90;;;18.60;99.90;;;;;;5094254;28;20856;-68
2022/06/24 03:08:04;;;;;;;1999.90;999.90;;;18.50;99.90;;;;;;5094167;28;20812;-69
2022/06/24 03:10:32;;;;;;;1999.90;999.90;;;18.50;99.90;;;;;;5094272;28;20989;-69
2022/06/24 03:12:59;;;;;;;1999.90;999.90;;;18.50;99.90;;;;;;5094076;28;20501;-69
2022/06/24 03:15:26;;;;;;;1999.90;999.90;;;18.40;99.90;;;;;;5094583;28;20863;-68
2022/06/24 03:17:52;;;;;;;1999.90;999.90;;;18.40;99.90;;;;;;5093742;28;20464;-69
2022/06/24 03:20:19;;;;;;;1999.90;999.90;;;18.50;99.90;;;;;;5094133;28;20484;-68
2022/06/24 03:22:47;;;;;;;1999.90;999.90;;;18.40;99.90;;;;;;5093960;28;20448;-69
2022/06/24 03:25:14;;;;;;;1999.90;999.90;;;18.30;99.90;;;;;;5094321;28;20444;-67
2022/06/24 03:27:40;;;;;;;1999.90;999.90;;;18.20;99.90;;;;;;5094030;28;20983;-70
2022/06/24 03:30:09;;;;;;;1999.90;999.90;;;18.20;99.90;;;;;;5093858;28;20448;-66
2022/06/24 03:32:37;;;;;;;1999.90;999.90;;;18.20;99.90;;;;;;5093611;28;20871;-68
2022/06/24 03:35:04;;;;;;;1999.90;999.90;;;18.10;99.90;;;;;;5093826;28;20928;-69
2022/06/24 03:37:31;;;;;;;1999.90;999.90;;;18.00;99.90;;;;;;5093722;28;20464;-67
2022/06/24 03:40:00;;;;;;;1999.90;999.90;;;18.00;99.90;;;;;;5093780;28;20490;-69
2022/06/24 03:42:27;;;;;;;1999.90;999.90;;;18.00;99.90;;;;;;5093759;28;20445;-67
2022/06/24 03:44:54;;;;;;;1999.90;999.90;;;18.00;99.90;;;;;;5093646;28;20493;-68
2022/06/24 03:47:21;;;;;;;1999.90;999.90;;;18.00;99.90;;;;;;5093507;28;20517;-67
2022/06/24 03:49:50;;;;;;;1999.90;999.90;;;18.10;99.90;;;;;;5093819;28;20489;-67
2022/06/24 03:52:17;;;;;;;1999.90;999.90;;;18.10;99.90;;;;;;5093319;28;20445;-68
2022/06/24 03:54:44;;;;;;;1999.90;999.90;;;18.20;99.90;;;;;;5093830;28;20449;-68
2022/06/24 03:57:12;;;;;;;1999.90;999.90;;;18.20;99.90;;;;;;5093403;28;20518;-68
2022/06/24 03:59:39;;;;;;;1999.90;999.90;;;18.10;99.90;;;;;;5093594;28;20502;-69
2022/06/24 04:02:06;;;;;;;1999.90;999.90;;;18.20;99.90;;;;;;5093043;28;20888;-69
2022/06/24 04:04:32;;;;;;;1999.90;999.90;;;18.10;99.90;;;;;;5093619;28;20502;-67
2022/06/24 04:06:59;;;;;;;1999.90;999.90;;;18.10;99.90;;;;;;5093378;28;20498;-68
2022/06/24 04:09:26;;;;;;;1999.90;999.90;;;18.10;99.90;;;;;;5093476;28;20497;-68
2022/06/24 04:11:53;;;;;;;1999.90;999.90;;;18.00;99.90;;;;;;5093298;28;20448;-69
2022/06/24 04:17:03;;;;;;;1999.90;999.90;;;18.10;99.90;;;;;;5092063;28;20465;-69
2022/06/24 04:19:29;;;;;;;1999.90;999.90;;;18.20;99.90;;;;;;5093263;28;20942;-68
2022/06/24 04:21:56;;;;;;;1999.90;999.90;;;18.30;99.90;;;;;;5092531;28;20835;-69
2022/06/24 04:24:23;;;;;;;1999.90;999.90;;;18.20;99.90;;;;;;5093093;28;20448;-69
2022/06/24 04:26:49;;;;;;;1999.90;999.90;;;18.20;99.90;;;;;;5092809;28;20514;-70
2022/06/24 04:29:16;;;;;;;1999.90;999.90;;;18.40;99.90;;;;;;5092969;28;20497;-67
2022/06/24 04:31:44;;;;;;;1999.90;999.90;;;18.40;99.90;;;;;;5092485;28;20997;-68
2022/06/24 04:34:11;;;;;;;1999.90;999.90;;;18.50;99.90;;;;;;5092684;28;20445;-67
2022/06/24 04:36:37;;;;;;;1999.90;999.90;;;18.60;99.90;;;;;;5092989;28;20468;-68
2022/06/24 04:39:04;;;;;;;1999.90;999.90;;;18.90;99.90;;;;;;5092638;28;21007;-68
2022/06/24 04:41:31;;;;;;;1999.90;999.90;;;19.10;99.90;;;;;;5092480;28;20472;-69
2022/06/24 04:43:57;;;;;;;1999.90;999.90;;;19.20;99.90;;;;;;5092828;28;20445;-67
2022/06/24 04:46:24;;;;;;;1999.90;999.90;;;19.50;99.90;;;;;;5092533;28;20980;-68
2022/06/24 04:48:53;;;;;;;1999.90;999.90;;;19.70;99.90;;;;;;5092135;28;20460;-69
2022/06/24 04:51:19;;;;;;;1999.90;999.90;;;19.90;99.90;;;;;;5092139;28;20440;-68
2022/06/24 04:53:46;;;;;;;1999.90;999.90;;;20.00;99.90;;;;;;5092363;28;20448;-68
2022/06/24 04:56:12;;;;;;;1999.90;999.90;;;20.20;99.90;;;;;;5092468;28;20464;-68
2022/06/24 04:58:39;;;;;;;1999.90;999.90;;;20.20;99.90;;;;;;5092244;28;20441;-68
2022/06/24 05:01:06;;;;;;;1999.90;999.90;;;20.40;99.90;;;;;;5092625;28;20476;-69
2022/06/24 05:03:32;;;;;;;1999.90;999.90;;;20.50;99.90;;;;;;5091966;28;20952;-68
2022/06/24 05:06:00;;;;;;;1999.90;999.90;;;20.50;99.90;;;;;;5092387;28;20518;-68
2022/06/24 05:08:27;;;;;;;1999.90;999.90;;;20.60;99.90;;;;;;5092440;28;20452;-69
2022/06/24 05:10:53;;;;;;;1999.90;999.90;;;20.70;99.90;;;;;;5092050;28;20436;-68
2022/06/24 05:13:20;;;;;;;1999.90;999.90;;;20.90;99.90;;;;;;5092005;28;20524;-68
2022/06/24 05:15:47;;;;;;;1999.90;999.90;;;20.80;99.90;;;;;;5091818;28;20514;-70
2022/06/24 05:18:13;;;;;;;1999.90;999.90;;;20.90;99.90;;;;;;5091999;28;20462;-69
2022/06/24 05:20:40;;;;;;;1999.90;999.90;;;20.80;99.90;;;;;;5091948;28;20445;-68
2022/06/24 05:23:08;;;;;;;1999.90;999.90;;;20.80;99.90;;;;;;5091606;28;20452;-68
2022/06/24 05:25:34;;;;;;;1999.90;999.90;;;20.80;99.90;;;;;;5092014;28;20493;-68
2022/06/24 05:28:01;;;;;;;1999.90;999.90;;;20.70;99.90;;;;;;5091918;28;20453;-68
2022/06/24 05:30:28;;;;;;;1999.90;999.90;;;21.00;99.90;;;;;;5092066;28;20791;-68
2022/06/24 05:32:54;;;;;;;1999.90;999.90;;;21.20;99.90;;;;;;5091862;28;20474;-68
2022/06/24 05:35:21;;;;;;;1999.90;999.90;;;21.40;99.90;;;;;;5091994;28;20506;-68
2022/06/24 05:37:48;;;;;;;1999.90;999.90;;;21.60;99.90;;;;;;5092007;28;20513;-68
2022/06/24 05:40:15;;;;;;;1999.90;999.90;;;21.90;99.90;;;;;;5092063;28;20497;-68
2022/06/24 05:42:42;;;;;;;1999.90;999.90;;;21.80;99.90;;;;;;5091759;28;20488;-68
2022/06/24 05:45:10;;;;;;;1999.90;999.90;;;22.00;99.90;;;;;;5091624;28;20448;-68
2022/06/24 05:47:37;;;;;;;1999.90;999.90;;;22.30;99.90;;;;;;5091557;28;20888;-66
2022/06/24 05:50:04;;;;;;;1999.90;999.90;;;22.70;99.90;;;;;;5091735;28;20509;-66
2022/06/24 05:55:16;;;;;;;1999.90;999.90;;;22.60;99.90;;;;;;5091644;28;20439;-66
2022/06/24 05:57:43;;;;;;;1999.90;999.90;;;22.70;99.90;;;;;;5091668;28;20460;-66
2022/06/24 06:00:10;;;;;;;1999.90;999.90;;;23.00;99.90;;;;;;5091492;28;20952;-66
2022/06/24 06:02:37;;;;;;;1999.90;999.90;;;23.40;99.90;;;;;;5091248;28;20488;-66
2022/06/24 06:05:04;;;;;;;1999.90;999.90;;;23.70;99.90;;;;;;5091635;28;20519;-66
2022/06/24 06:07:30;;;;;;;1999.90;999.90;;;24.00;99.90;;;;;;5091539;28;20464;-66
2022/06/24 06:09:57;;;;;;;1999.90;999.90;;;24.30;99.90;;;;;;5091928;28;20857;-66
2022/06/24 06:12:25;;;;;;;1999.90;999.90;;;24.20;99.80;;;;;;5090982;28;20981;-66
2022/06/24 06:14:52;;;;;;;1999.90;999.90;;;24.60;99.40;;;;;;5091586;28;20450;-66
2022/06/24 06:17:19;;;;;;;1999.90;999.90;;;24.80;99.10;;;;;;5091041;28;20476;-66
2022/06/24 06:19:45;;;;;;;1999.90;999.90;;;25.10;98.70;;;;;;5091839;28;20448;-66
2022/06/24 06:22:12;;;;;;;1999.90;999.90;;;25.30;98.00;;;;;;5091173;28;21088;-67
2022/06/24 06:24:39;;;;;;;1999.90;999.90;;;25.50;97.50;;;;;;5091888;28;20440;-66
2022/06/24 06:27:06;;;;;;;1999.90;999.90;;;25.70;97.30;;;;;;5091381;28;20500;-67
2022/06/24 06:29:34;;;;;;;1999.90;999.90;;;25.80;96.60;;;;;;5091558;28;20456;-66
2022/06/24 06:32:01;;;;;;;1999.90;999.90;;;26.00;96.40;;;;;;5091260;28;20509;-67
2022/06/24 06:34:27;;;;;;;1999.90;999.90;;;26.20;96.10;;;;;;5091298;28;20444;-67
2022/06/24 06:36:54;;;;;;;1999.90;999.90;;;26.30;95.90;;;;;;5092123;28;20510;-66
2022/06/24 06:39:20;;;;;;;1999.90;999.90;;;26.40;95.80;;;;;;5095015;28;20448;-66
2022/06/24 06:41:47;;;;;;;1999.90;999.90;;;26.70;95.80;;;;;;5094805;28;20889;-66
2022/06/24 06:44:15;;;;;;;1999.90;999.90;;;26.90;95.20;;;;;;5095119;28;20449;-67
2022/06/24 06:46:43;;;;;;;1999.90;999.90;;;26.80;95.30;;;;;;5094695;28;20551;-67
2022/06/24 06:49:10;;;;;;;1999.90;999.90;;;26.90;95.20;;;;;;5094914;28;20861;-67
2022/06/24 06:51:37;;;;;;;1999.90;999.90;;;26.90;95.20;;;;;;5094723;28;20940;-67
2022/06/24 06:54:04;;;;;;;1999.90;999.90;;;27.00;95.00;;;;;;5094914;28;20448;-66
2022/06/24 06:56:31;;;;;;;1999.90;999.90;;;26.90;95.30;;;;;;5094259;28;20889;-67
2022/06/24 06:58:57;;;;;;;1999.90;999.90;;;27.00;95.20;;;;;;5094744;28;20882;-67
2022/06/24 07:01:24;;;;;;;1999.90;999.90;;;27.00;95.10;;;;;;5094622;28;20472;-66
2022/06/24 07:03:52;;;;;;;1999.90;999.90;;;27.20;94.70;;;;;;5094177;28;20444;-66
2022/06/24 07:06:19;;;;;;;1999.90;999.90;;;27.20;94.70;;;;;;5094535;28;21030;-66
2022/06/24 07:08:45;;;;;;;1999.90;999.90;;;27.40;95.20;;;;;;5094583;28;20474;-66
2022/06/24 07:11:12;;;;;;;1999.90;999.90;;;27.20;94.70;;;;;;5094139;28;20922;-66
2022/06/24 07:13:38;;;;;;;1999.90;999.90;;;27.50;94.60;;;;;;5094207;28;20474;-66
2022/06/24 07:16:09;;;;;;;1999.90;999.90;;;27.50;94.20;;;;;;5111491;22;20541;-67
2022/06/24 07:18:36;;;;;;;1999.90;999.90;;;27.40;94.10;;;;;;5071540;28;21051;-70
2022/06/24 07:21:04;;;;;;;1999.90;999.90;;;27.70;94.20;;;;;;5074037;28;20503;-70
2022/06/24 07:23:30;;;;;;;1999.90;999.90;;;27.50;94.20;;;;;;5073809;28;20485;-70
2022/06/24 07:25:57;;;;;;;1999.90;999.90;;;27.60;94.40;;;;;;5074003;28;20441;-70
2022/06/24 07:28:25;;;;;;;1999.90;999.90;;;27.70;94.30;;;;;;5073863;28;20445;-68
2022/06/24 07:30:52;;;;;;;1999.90;999.90;;;27.70;94.30;;;;;;5073872;28;20445;-68
2022/06/24 07:33:19;;;;;;;1999.90;999.90;;;27.70;94.00;;;;;;5073489;28;20446;-69
2022/06/24 07:35:45;;;;;;;1999.90;999.90;;;27.90;94.20;;;;;;5073877;28;20445;-69
2022/06/24 07:38:13;;;;;;;1999.90;999.90;;;28.10;94.20;;;;;;5073364;28;20852;-70
2022/06/24 07:40:40;;;;;;;1999.90;999.90;;;27.90;94.10;;;;;;5073116;28;20934;-70
2022/06/24 07:43:07;;;;;;;1999.90;999.90;;;28.40;94.20;;;;;;5072919;28;20531;-70
2022/06/24 07:45:34;;;;;;;1999.90;999.90;;;28.10;93.90;;;;;;5073115;28;20868;-70
2022/06/24 07:48:02;;;;;;;1999.90;999.90;;;28.00;94.10;;;;;;5072892;28;20496;-70
2022/06/24 07:50:28;;;;;;;1999.90;999.90;;;28.00;94.20;;;;;;5073141;28;20445;-70
2022/06/24 07:52:55;;;;;;;1999.90;999.90;;;28.20;94.00;;;;;;5072893;28;20870;-70
2022/06/24 07:58:07;;;;;;;1999.90;999.90;;;28.10;94.60;;;;;;5073381;28;20967;-70
2022/06/24 08:00:34;;;;;;;1999.90;999.90;;;28.30;94.20;;;;;;5073102;28;20445;-70
2022/06/24 08:03:01;;;;;;;1999.90;999.90;;;28.50;93.90;;;;;;5072879;28;20534;-71
2022/06/24 08:05:27;;;;;;;1999.90;999.90;;;28.60;93.80;;;;;;5073206;28;20441;-70
2022/06/24 08:07:54;;;;;;;1999.90;999.90;;;28.90;93.60;;;;;;5073184;28;20465;-70
2022/06/24 08:10:20;;;;;;;1999.90;999.90;;;28.50;93.70;;;;;;5072974;28;20441;-70
2022/06/24 08:12:48;;;;;;;1999.90;999.90;;;28.30;94.20;;;;;;5072930;28;20449;-70
2022/06/24 08:15:16;;;;;;;1999.90;999.90;;;28.40;94.40;;;;;;5073178;28;20495;-70
2022/06/24 08:17:43;;;;;;;1999.90;999.90;;;28.90;94.20;;;;;;5072289;28;20484;-70
2022/06/24 08:20:10;;;;;;;1999.90;999.90;;;29.10;93.40;;;;;;5072674;28;20793;-70
2022/06/24 08:22:37;;;;;;;1999.90;999.90;;;28.80;93.40;;;;;;5072627;28;20477;-70
2022/06/24 08:25:04;;;;;;;1999.90;999.90;;;28.60;93.60;;;;;;5072782;28;20510;-70
2022/06/24 08:27:31;;;;;;;1999.90;999.90;;;28.30;93.70;;;;;;5072831;28;20514;-70
2022/06/24 08:29:59;;;;;;;1999.90;999.90;;;28.40;93.70;;;;;;5072640;28;20450;-71
2022/06/24 08:32:26;;;;;;;1999.90;999.90;;;28.50;94.20;;;;;;5072501;28;20441;-69
2022/06/24 08:34:52;;;;;;;1999.90;999.90;;;28.80;93.30;;;;;;5072751;28;20495;-70
2022/06/24 08:37:19;;;;;;;1999.90;999.90;;;29.20;93.20;;;;;;5072731;28;20469;-70
2022/06/24 08:39:46;;;;;;;1999.90;999.90;;;29.30;92.30;;;;;;5072589;28;20499;-71
2022/06/24 08:42:13;;;;;;;1999.90;999.90;;;28.90;93.10;;;;;;5071896;28;20476;-70
2022/06/24 08:44:41;;;;;;;1999.90;999.90;;;28.60;93.20;;;;;;5072772;28;20473;-71
2022/06/24 08:47:14;;;;;;;1999.90;999.90;;;28.70;93.40;;;;;;5072107;28;20461;-70
2022/06/24 08:49:41;;;;;;;1999.90;999.90;;;28.70;93.60;;;;;;5072763;28;20780;-70
2022/06/24 08:52:10;;;;;;;1999.90;999.90;;;28.40;93.80;;;;;;5071969;28;20448;-70
2022/06/24 08:54:39;;;;;;;1999.90;999.90;;;28.00;95.30;;;;;;5072522;28;20449;-68
2022/06/24 08:57:06;;;;;;;1999.90;999.90;;;28.10;94.50;;;;;;5072129;28;20465;-68
2022/06/24 08:59:33;;;;;;;1999.90;999.90;;;27.80;94.90;;;;;;5071692;28;20937;-68
2022/06/24 09:01:59;;;;;;;1999.90;999.90;;;27.70;95.20;;;;;;5071797;28;20481;-68
2022/06/24 09:04:27;;;;;;;1999.90;999.90;;;27.80;95.00;;;;;;5072012;28;20948;-68
2022/06/24 09:06:54;;;;;;;1999.90;999.90;;;27.60;95.70;;;;;;5072140;28;20510;-68
2022/06/24 09:09:26;;;;;;;1999.90;999.90;;;27.70;95.40;;;;;;5072096;28;20477;-68
2022/06/24 09:11:56;;;;;;;1999.90;999.90;;;27.60;95.50;;;;;;5071729;28;20503;-67
2022/06/24 09:14:22;;;;;;;1999.90;999.90;;;27.70;95.60;;;;;;5071607;28;20937;-68
2022/06/24 09:16:49;;;;;;;1999.90;999.90;;;27.80;95.00;;;;;;5071522;28;20901;-68
2022/06/24 09:19:16;;;;;;;1999.90;999.90;;;27.80;95.50;;;;;;5071812;28;20996;-68
2022/06/24 09:21:44;;;;;;;1999.90;999.90;;;27.40;96.00;;;;;;5071887;28;20440;-68
2022/06/24 09:24:11;;;;;;;1999.90;999.90;;;27.60;95.60;;;;;;5071437;28;20494;-68
2022/06/24 09:26:40;;;;;;;1999.90;999.90;;;27.50;95.90;;;;;;5072280;28;20461;-68
2022/06/24 09:29:08;;;;;;;1999.90;999.90;;;27.60;96.00;;;;;;5071844;28;20449;-68
2022/06/24 09:31:36;;;;;;;1999.90;999.90;;;27.40;96.50;;;;;;5071860;28;20441;-68
2022/06/24 09:34:08;;;;;;;1999.90;999.90;;;27.40;96.10;;;;;;5072048;28;20449;-68
2022/06/24 09:36:36;;;;;;;1999.90;999.90;;;27.20;96.00;;;;;;5071495;28;20465;-68
2022/06/24 09:39:07;;;;;;;1999.90;999.90;;;27.50;95.70;;;;;;5071794;28;20507;-68
2022/06/24 09:41:44;;;;;;;1999.90;999.90;;;27.20;95.20;;;;;;5071739;28;20448;-70
2022/06/24 09:44:11;;;;;;;1999.90;999.90;;;26.80;96.40;;;;;;5071459;28;20968;-70
2022/06/24 09:46:38;;;;;;;1999.90;999.90;;;26.80;96.60;;;;;;5072588;28;20523;-70
2022/06/24 09:49:06;;;;;;;1999.90;999.90;;;26.60;97.20;;;;;;5072418;28;20449;-70
2022/06/24 09:51:34;;;;;;;1999.90;999.90;;;26.20;98.30;;;;;;5073007;28;20461;-70
2022/06/24 09:54:01;;;;;;;1999.90;999.90;;;26.00;99.90;;;;;;5073479;28;20453;-71
2022/06/24 09:56:29;;;;;;;1999.90;999.90;;;25.80;99.90;;;;;;5071681;28;20470;-71
2022/06/24 10:01:42;;;;;;;1999.90;999.90;;;25.50;99.90;;;;;;5071347;28;20463;-69
2022/06/24 10:04:13;;;;;;;1999.90;999.90;;;25.20;99.90;;;;;;5071910;28;20481;-70
2022/06/24 10:06:43;;;;;;;1999.90;999.90;;;25.10;99.90;;;;;;5072001;28;20476;-72
2022/06/24 10:09:10;;;;;;;1999.90;999.90;;;25.50;99.90;;;;;;5072115;28;20487;-70
2022/06/24 10:11:39;;;;;;;1999.90;999.90;;;25.10;99.90;;;;;;5071681;28;20503;-70
2022/06/24 10:14:07;;;;;;;1999.90;999.90;;;25.10;99.90;;;;;;5075699;28;20441;-70
2022/06/24 10:16:34;;;;;;;1999.90;999.90;;;24.80;99.90;;;;;;5075460;28;20481;-69
2022/06/24 10:19:02;;;;;;;1999.90;999.90;;;24.60;99.90;;;;;;5076228;28;20502;-72
2022/06/24 10:21:30;;;;;;;1999.90;999.90;;;24.40;99.90;;;;;;5075637;28;20929;-70
2022/06/24 10:23:57;;;;;;;1999.90;999.90;;;24.60;99.90;;;;;;5075420;28;20481;-70
2022/06/24 10:26:25;;;;;;;1999.90;999.90;;;24.10;99.90;;;;;;5074983;28;20566;-70
2022/06/24 10:29:30;;;;;;;1999.90;999.90;;;23.70;99.90;;;;;;5074955;28;20813;-70
2022/06/24 10:32:03;;;;;;;1999.90;999.90;;;23.50;99.90;;;;;;5074725;28;20545;-70
2022/06/24 10:34:33;;;;;;;1999.90;999.90;;;23.80;99.90;;;;;;5074660;28;20802;-70
2022/06/24 10:37:02;;;;;;;1999.90;999.90;;;23.10;99.90;;;;;;5074958;28;20868;-70
2022/06/24 10:39:31;;;;;;;1999.90;999.90;;;23.00;99.90;;;;;;5074767;28;20933;-69
2022/06/24 10:42:00;;;;;;;1999.90;999.90;;;23.10;99.90;;;;;;5074697;28;20525;-69
2022/06/24 10:44:29;;;;;;;1999.90;999.90;;;23.10;99.90;;;;;;5074816;28;20476;-70
2022/06/24 10:47:27;;;;;;;1999.90;999.90;;;22.90;99.90;;;;;;5074828;28;20461;-70
2022/06/24 10:50:14;;;;;;;1999.90;999.90;;;22.70;99.90;;;;;;5074908;28;20874;-70
2022/06/24 10:52:55;;;;;;;1999.90;999.90;;;22.50;99.90;;;;;;5074369;28;20448;-70
2022/06/24 10:55:39;;;;;;;1999.90;999.90;;;22.50;99.90;;;;;;5074538;28;20441;-70
2022/06/24 10:58:13;;;;;;;1999.90;999.90;;;22.60;99.90;;;;;;5074596;28;20468;-70
2022/06/24 11:00:53;;;;;;;1999.90;999.90;;;22.50;99.90;;;;;;5074233;28;20514;-70
2022/06/24 11:03:28;;;;;;;1999.90;999.90;;;22.40;99.90;;;;;;5074122;28;20582;-69
2022/06/24 11:05:55;;;;;;;1999.90;999.90;;;22.20;99.90;;;;;;5074214;28;20594;-70
2022/06/24 11:08:22;;;;;;;1999.90;999.90;;;22.00;99.90;;;;;;5074257;28;20457;-69
2022/06/24 11:10:50;;;;;;;1999.90;999.90;;;22.00;99.90;;;;;;5074359;28;20445;-69
2022/06/24 11:13:17;;;;;;;1999.90;999.90;;;22.20;99.90;;;;;;5074023;28;20445;-70
2022/06/24 11:15:46;;;;;;;1999.90;999.90;;;22.40;99.90;;;;;;5074127;28;20452;-70
2022/06/24 11:18:17;;;;;;;1999.90;999.90;;;22.30;99.90;;;;;;5073754;28;20489;-70
2022/06/24 11:20:47;;;;;;;1999.90;999.90;;;22.50;99.90;;;;;;5074364;28;20433;-70
2022/06/24 11:23:15;;;;;;;1999.90;999.90;;;22.20;99.90;;;;;;5073647;28;20481;-70
2022/06/24 11:25:46;;;;;;;1999.90;999.90;;;22.10;99.90;;;;;;5073843;28;20934;-70
2022/06/24 11:28:24;;;;;;;1999.90;999.90;;;22.60;99.90;;;;;;5074043;28;20466;-70
2022/06/24 11:30:53;;;;;;;1999.90;999.90;;;22.90;99.90;;;;;;5074172;28;20479;-70
2022/06/24 11:33:21;;;;;;;1999.90;999.90;;;23.30;99.90;;;;;;5074202;28;20502;-70
2022/06/24 11:35:49;;;;;;;1999.90;999.90;;;23.70;99.90;;;;;;5074288;28;20968;-70
2022/06/24 11:38:19;;;;;;;1999.90;999.90;;;23.60;99.90;;;;;;5074361;28;20465;-70
2022/06/24 11:40:46;;;;;;;1999.90;999.90;;;23.90;99.90;;;;;;5074182;28;20449;-70
2022/06/24 11:43:15;;;;;;;1999.90;999.90;;;24.40;99.90;;;;;;5074016;28;20473;-70
2022/06/24 11:45:44;;;;;;;1999.90;999.90;;;24.20;99.90;;;;;;5074500;28;20828;-70
2022/06/24 11:48:12;;;;;;;1999.90;999.90;;;24.40;99.90;;;;;;5074340;28;20523;-70
2022/06/24 11:50:40;;;;;;;1999.90;999.90;;;24.20;99.90;;;;;;5074139;28;20520;-70
2022/06/24 11:53:08;;;;;;;1999.90;999.90;;;24.40;99.90;;;;;;5073786;28;20491;-70
2022/06/24 11:55:37;;;;;;;1999.90;999.90;;;24.60;99.90;;;;;;5073511;28;20987;-70
2022/06/24 11:58:06;;;;;;;1999.90;999.90;;;24.20;99.90;;;;;;5074096;28;20462;-70
2022/06/24 12:00:35;;;;;;;1999.90;999.90;;;24.20;99.90;;;;;;5073822;28;20449;-70
2022/06/24 12:03:05;;;;;;;1999.90;999.90;;;24.20;99.90;;;;;;5073519;28;20481;-70
2022/06/24 12:05:33;;;;;;;1999.90;999.90;;;24.40;99.90;;;;;;5073296;28;20449;-69
2022/06/24 12:08:02;;;;;;;1999.90;999.90;;;24.90;99.90;;;;;;5073605;28;20846;-70
2022/06/24 12:10:29;;;;;;;1999.90;999.90;;;25.00;99.90;;;;;;5073140;28;20999;-70
2022/06/24 12:13:01;;;;;;;1999.90;999.90;;;25.00;99.90;;;;;;5073100;28;20495;-70
2022/06/24 12:15:34;;;;;;;1999.90;999.90;;;24.90;99.90;;;;;;5073049;28;20956;-71
2022/06/24 12:18:01;;;;;;;1999.90;999.90;;;25.50;99.90;;;;;;5072265;28;20477;-69